Time;durP1;ratioP1;P1;durP2;ratioP2;P2;SDS_P1;SDS_P2;PMS_P1;PMS_P2;Temp;Humidity;BMP_temperature;BMP_pressure;BME280_temperature;BME280_humidity;BME280_pressure;Samples;Min_cycle;Max_cycle;Signal;HPM_P1;HPM_P2
2022/02/27 00:00:36;;;;;;;8.27;3.47;;;-0.50;99.90;;;;;;5049446;28;20025;-54
2022/02/27 00:03:03;;;;;;;6.90;3.60;;;-0.50;99.90;;;;;;5063940;28;20111;-54
2022/02/27 00:05:29;;;;;;;4.72;3.25;;;-0.60;99.90;;;;;;5069000;28;20119;-49
2022/02/27 00:07:55;;;;;;;6.05;3.03;;;-0.60;99.90;;;;;;5069934;28;20181;-49
2022/02/27 00:10:21;;;;;;;6.70;3.33;;;-0.60;99.90;;;;;;5049872;28;20029;-53
2022/02/27 00:12:50;;;;;;;4.60;3.25;;;-0.70;99.90;;;;;;5049551;28;20040;-55
2022/02/27 00:15:16;;;;;;;4.13;2.92;;;-0.70;99.90;;;;;;5049008;28;20028;-53
2022/02/27 00:17:42;;;;;;;4.80;3.38;;;-0.70;99.90;;;;;;5049742;28;20485;-51
2022/02/27 00:20:09;;;;;;;4.93;3.30;;;-0.70;99.90;;;;;;5058123;28;20082;-52
2022/02/27 00:22:35;;;;;;;4.82;3.25;;;-0.80;99.90;;;;;;5050737;28;20028;-52
2022/02/27 00:25:01;;;;;;;4.07;3.20;;;-0.80;99.90;;;;;;5069284;28;20025;-51
2022/02/27 00:27:27;;;;;;;4.80;3.17;;;-0.80;99.90;;;;;;5069710;28;20060;-52
2022/02/27 00:29:53;;;;;;;4.50;2.78;;;-0.90;99.90;;;;;;5053133;28;20449;-53
2022/02/27 00:32:18;;;;;;;5.78;3.20;;;-0.90;99.90;;;;;;5069035;28;20034;-51
2022/02/27 00:34:44;;;;;;;5.20;3.20;;;-0.90;99.90;;;;;;5069394;28;20112;-52
2022/02/27 00:37:09;;;;;;;5.25;3.13;;;-0.90;99.90;;;;;;5068794;28;20039;-51
2022/02/27 00:39:35;;;;;;;5.60;3.30;;;-0.90;99.90;;;;;;5069089;28;20651;-54
2022/02/27 00:42:01;;;;;;;5.28;2.88;;;-1.00;99.90;;;;;;5068529;28;20031;-50
2022/02/27 00:44:26;;;;;;;6.70;3.00;;;-1.00;99.90;;;;;;5069272;28;20403;-51
2022/02/27 00:46:52;;;;;;;4.10;3.35;;;-1.00;99.90;;;;;;5068958;28;20024;-54
2022/02/27 00:49:17;;;;;;;3.47;2.92;;;-1.00;99.90;;;;;;5051057;28;20445;-53
2022/02/27 00:51:44;;;;;;;7.70;3.65;;;-1.10;99.90;;;;;;5068480;28;20051;-53
2022/02/27 00:54:09;;;;;;;6.55;3.17;;;-1.10;99.90;;;;;;5068700;28;20039;-56
2022/02/27 00:56:35;;;;;;;4.75;3.17;;;-1.10;99.90;;;;;;5068929;28;20032;-55
2022/02/27 00:59:02;;;;;;;4.20;2.60;;;-1.10;99.90;;;;;;5068762;28;20492;-51
2022/02/27 01:01:27;;;;;;;3.67;2.45;;;-1.20;99.90;;;;;;5067733;28;20028;-53
2022/02/27 01:03:53;;;;;;;5.82;3.25;;;-1.20;99.90;;;;;;5068642;28;20032;-53
2022/02/27 01:06:23;;;;;;;4.57;3.20;;;-1.20;99.90;;;;;;5068352;28;20024;-54
2022/02/27 01:08:50;;;;;;;5.35;3.30;;;-1.20;99.90;;;;;;5065660;28;20017;-52
2022/02/27 01:11:16;;;;;;;6.25;3.60;;;-1.20;99.90;;;;;;5069218;28;20024;-51
2022/02/27 01:13:42;;;;;;;6.07;3.38;;;-1.20;99.90;;;;;;5069069;28;20033;-51
2022/02/27 01:16:08;;;;;;;5.38;2.85;;;-1.30;99.90;;;;;;5068301;28;20062;-52
2022/02/27 01:18:33;;;;;;;5.30;2.88;;;-1.30;99.90;;;;;;5068622;28;20029;-52
2022/02/27 01:20:59;;;;;;;4.22;3.30;;;-1.30;99.90;;;;;;5069017;28;20043;-52
2022/02/27 01:23:25;;;;;;;5.47;2.83;;;-1.30;99.90;;;;;;5068169;28;20067;-54
2022/02/27 01:25:51;;;;;;;5.32;3.33;;;-1.30;99.90;;;;;;5061954;28;20052;-53
2022/02/27 01:28:17;;;;;;;7.97;3.08;;;-1.30;99.90;;;;;;5059896;28;20112;-51
2022/02/27 01:30:42;;;;;;;4.72;2.90;;;-1.40;99.90;;;;;;5068796;28;20032;-51
2022/02/27 01:33:09;;;;;;;5.68;2.70;;;-1.40;99.90;;;;;;5068109;28;20028;-50
2022/02/27 01:35:34;;;;;;;4.07;3.60;;;-1.40;99.90;;;;;;5067591;28;20043;-55
2022/02/27 01:38:00;;;;;;;3.05;2.60;;;-1.40;99.90;;;;;;5068429;28;20033;-50
2022/02/27 01:40:26;;;;;;;3.00;2.42;;;-1.40;99.90;;;;;;5068662;28;20076;-51
2022/02/27 01:42:52;;;;;;;4.72;2.65;;;-1.40;99.90;;;;;;5068147;28;20028;-52
2022/02/27 01:45:18;;;;;;;3.95;2.85;;;-1.40;99.90;;;;;;5068380;28;20021;-53
2022/02/27 01:47:43;;;;;;;5.35;2.70;;;-1.40;99.90;;;;;;5068372;28;20103;-51
2022/02/27 01:50:09;;;;;;;3.55;3.10;;;-1.50;99.90;;;;;;5068827;28;20592;-53
2022/02/27 01:52:35;;;;;;;4.50;3.13;;;-1.50;99.90;;;;;;5070519;28;20032;-50
2022/02/27 01:55:01;;;;;;;6.63;2.95;;;-1.50;99.90;;;;;;5071981;28;20055;-52
2022/02/27 01:57:27;;;;;;;3.10;2.65;;;-1.50;99.90;;;;;;5072067;28;20528;-50
2022/02/27 01:59:53;;;;;;;4.50;2.97;;;-1.50;99.90;;;;;;5069179;28;20036;-51
2022/02/27 02:02:18;;;;;;;3.47;2.63;;;-1.40;99.90;;;;;;5069508;28;20512;-49
2022/02/27 02:04:44;;;;;;;5.25;2.92;;;-1.40;99.90;;;;;;5070087;28;20043;-50
2022/02/27 02:07:11;;;;;;;4.10;2.70;;;-1.30;99.90;;;;;;5071561;28;20033;-53
2022/02/27 02:09:37;;;;;;;5.45;2.92;;;-1.40;99.90;;;;;;5054158;28;20020;-55
2022/02/27 02:12:04;;;;;;;5.93;2.97;;;-1.30;99.90;;;;;;5053402;28;20043;-51
2022/02/27 02:14:30;;;;;;;4.75;2.55;;;-1.30;99.90;;;;;;5071363;28;20033;-50
2022/02/27 02:16:55;;;;;;;5.82;2.83;;;-1.30;99.90;;;;;;5071629;28;20083;-51
2022/02/27 02:19:24;;;;;;;5.53;3.08;;;-1.30;99.90;;;;;;5071641;28;20028;-50
2022/02/27 02:21:53;;;;;;;3.05;2.70;;;-1.30;99.90;;;;;;5070675;28;20428;-53
2022/02/27 02:24:19;;;;;;;3.53;2.38;;;-1.30;99.90;;;;;;5071520;28;20038;-52
2022/02/27 02:26:45;;;;;;;4.60;3.00;;;-1.40;99.90;;;;;;5071546;28;20040;-52
2022/02/27 02:29:14;;;;;;;3.70;2.70;;;-1.30;99.90;;;;;;5071159;28;20024;-53
2022/02/27 02:31:40;;;;;;;4.78;3.10;;;-1.40;99.90;;;;;;5071568;28;20515;-51
2022/02/27 02:34:10;;;;;;;7.93;3.05;;;-1.40;99.90;;;;;;5071462;28;20104;-53
2022/02/27 02:36:36;;;;;;;3.83;3.00;;;-1.40;99.90;;;;;;5071059;28;20057;-50
2022/02/27 02:39:04;;;;;;;6.72;2.60;;;-1.50;99.90;;;;;;5053379;28;20052;-52
2022/02/27 02:41:30;;;;;;;6.70;3.22;;;-1.50;99.90;;;;;;5071464;28;20036;-49
2022/02/27 02:43:56;;;;;;;5.03;2.80;;;-1.50;99.90;;;;;;5070099;28;20028;-52
2022/02/27 02:46:22;;;;;;;4.53;2.90;;;-1.60;99.90;;;;;;5070809;28;20051;-53
2022/02/27 02:48:48;;;;;;;8.90;3.20;;;-1.50;99.90;;;;;;5070960;28;20032;-52
2022/02/27 02:51:13;;;;;;;6.28;3.00;;;-1.60;99.90;;;;;;5069941;28;20063;-50
2022/02/27 02:53:40;;;;;;;4.88;3.17;;;-1.60;99.90;;;;;;5070538;28;20036;-51
2022/02/27 02:56:06;;;;;;;4.80;2.88;;;-1.60;99.90;;;;;;5070696;28;20040;-53
2022/02/27 02:58:32;;;;;;;2.60;2.40;;;-1.60;99.90;;;;;;5070942;28;20028;-50
2022/02/27 03:00:59;;;;;;;3.78;2.40;;;-1.60;99.90;;;;;;5070700;28;20040;-53
2022/02/27 03:03:25;;;;;;;5.32;2.90;;;-1.70;99.90;;;;;;5070314;28;20465;-52
2022/02/27 03:05:51;;;;;;;8.05;3.22;;;-1.60;99.90;;;;;;5070497;28;20060;-52
2022/02/27 03:08:16;;;;;;;3.53;2.67;;;-1.60;99.90;;;;;;5071079;28;20066;-54
2022/02/27 03:10:42;;;;;;;5.85;3.42;;;-1.60;99.90;;;;;;5070827;28;20120;-52
2022/02/27 03:13:08;;;;;;;7.07;3.20;;;-1.70;99.90;;;;;;5070424;28;20029;-51
2022/02/27 03:15:33;;;;;;;3.50;2.75;;;-1.60;99.90;;;;;;5070589;28;20044;-52
2022/02/27 03:17:59;;;;;;;3.97;3.00;;;-1.60;99.90;;;;;;5070901;28;20500;-51
2022/02/27 03:20:24;;;;;;;4.15;2.95;;;-1.60;99.90;;;;;;5070312;28;20097;-52
2022/02/27 03:22:50;;;;;;;5.25;2.67;;;-1.60;99.90;;;;;;5072384;28;20032;-54
2022/02/27 03:25:15;;;;;;;8.05;2.95;;;-1.60;99.90;;;;;;5075196;28;20102;-52
2022/02/27 03:27:41;;;;;;;7.63;3.67;;;-1.60;99.90;;;;;;5070068;28;20059;-51
2022/02/27 03:30:07;;;;;;;3.25;2.95;;;-1.60;99.90;;;;;;5070400;28;20581;-55
2022/02/27 03:32:33;;;;;;;6.68;2.70;;;-1.70;99.90;;;;;;5070085;28;20036;-53
2022/02/27 03:34:58;;;;;;;4.32;2.55;;;-1.70;99.90;;;;;;5069905;28;20056;-50
2022/02/27 03:37:24;;;;;;;5.45;2.95;;;-1.70;99.90;;;;;;5070409;28;20115;-53
2022/02/27 03:39:49;;;;;;;3.42;2.58;;;-1.70;99.90;;;;;;5070067;28;20020;-52
2022/02/27 03:42:15;;;;;;;4.22;2.25;;;-1.70;99.90;;;;;;5069708;28;20063;-51
2022/02/27 03:44:41;;;;;;;3.72;2.80;;;-1.80;99.90;;;;;;5069747;28;20028;-51
2022/02/27 03:47:06;;;;;;;4.28;2.40;;;-1.80;99.90;;;;;;5070051;28;20024;-49
2022/02/27 03:49:32;;;;;;;3.90;2.58;;;-1.80;99.90;;;;;;5051553;28;20032;-54
2022/02/27 03:51:57;;;;;;;5.35;3.22;;;-1.80;99.90;;;;;;5070026;28;20432;-53
2022/02/27 03:54:23;;;;;;;3.88;2.47;;;-1.80;99.90;;;;;;5070009;28;20086;-50
2022/02/27 03:56:49;;;;;;;3.55;2.63;;;-1.80;99.90;;;;;;5069845;28;20037;-52
2022/02/27 03:59:15;;;;;;;4.43;3.00;;;-1.90;99.90;;;;;;5069611;28;20060;-53
2022/02/27 04:01:40;;;;;;;3.22;2.58;;;-1.90;99.90;;;;;;5069643;28;20036;-51
2022/02/27 04:04:06;;;;;;;4.72;2.78;;;-2.00;99.90;;;;;;5069269;28;20120;-51
2022/02/27 04:06:32;;;;;;;4.28;2.28;;;-2.00;99.90;;;;;;5069580;28;20036;-53
2022/02/27 04:08:58;;;;;;;5.57;2.95;;;-2.00;99.90;;;;;;5069487;28;20535;-52
2022/02/27 04:11:23;;;;;;;5.00;2.30;;;-1.90;99.90;;;;;;5069428;28;20035;-52
2022/02/27 04:13:49;;;;;;;8.48;3.00;;;-2.00;99.90;;;;;;5068969;28;20051;-51
2022/02/27 04:16:15;;;;;;;3.03;2.70;;;-2.00;99.90;;;;;;5068511;28;20048;-51
2022/02/27 04:18:40;;;;;;;6.57;2.78;;;-2.00;99.90;;;;;;5069501;28;20040;-55
2022/02/27 04:21:06;;;;;;;3.95;2.50;;;-2.00;99.90;;;;;;5069751;28;20044;-53
2022/02/27 04:23:32;;;;;;;3.22;2.30;;;-2.00;99.90;;;;;;5069487;28;20064;-55
2022/02/27 04:25:57;;;;;;;3.33;2.92;;;-2.00;99.90;;;;;;5069250;28;20553;-52
2022/02/27 04:28:23;;;;;;;4.85;2.60;;;-2.00;99.90;;;;;;5068862;28;20055;-49
2022/02/27 04:30:48;;;;;;;4.40;2.35;;;-2.00;99.90;;;;;;5069496;28;20025;-53
2022/02/27 04:33:14;;;;;;;5.60;2.75;;;-2.00;99.90;;;;;;5069128;28;20029;-52
2022/02/27 04:35:40;;;;;;;4.85;2.92;;;-2.00;99.90;;;;;;5068544;28;20037;-54
2022/02/27 04:38:05;;;;;;;4.78;3.08;;;-2.00;99.90;;;;;;5069075;28;20094;-53
2022/02/27 04:40:34;;;;;;;5.53;3.05;;;-2.00;99.90;;;;;;5069057;28;20067;-54
2022/02/27 04:43:01;;;;;;;8.48;3.85;;;-2.00;99.90;;;;;;5068709;28;20082;-54
2022/02/27 04:45:27;;;;;;;5.43;2.65;;;-2.00;99.90;;;;;;5068588;28;20456;-52
2022/02/27 04:47:53;;;;;;;6.68;3.00;;;-2.00;99.90;;;;;;5069110;28;20064;-52
2022/02/27 04:50:18;;;;;;;4.38;2.78;;;-2.00;99.90;;;;;;5068388;28;20063;-53
2022/02/27 04:52:44;;;;;;;4.20;2.97;;;-2.00;99.90;;;;;;5068612;28;20036;-53
2022/02/27 04:55:10;;;;;;;3.33;2.92;;;-2.00;99.90;;;;;;5068884;28;20032;-54
2022/02/27 04:57:35;;;;;;;7.40;3.20;;;-2.00;99.90;;;;;;5068793;28;20463;-52
2022/02/27 05:00:04;;;;;;;3.33;2.80;;;-2.10;99.90;;;;;;5068812;28;20028;-55
2022/02/27 05:02:30;;;;;;;3.80;2.97;;;-2.10;99.90;;;;;;5068897;28;20127;-51
2022/02/27 05:04:55;;;;;;;6.40;3.15;;;-2.10;99.90;;;;;;5068228;28;20492;-51
2022/02/27 05:07:21;;;;;;;9.60;3.40;;;-2.10;99.90;;;;;;5068914;28;20032;-52
2022/02/27 05:09:46;;;;;;;5.85;2.40;;;-2.10;99.90;;;;;;5069107;28;20032;-52
2022/02/27 05:12:12;;;;;;;5.50;2.83;;;-2.10;99.90;;;;;;5068689;28;20028;-53
2022/02/27 05:14:37;;;;;;;5.63;3.40;;;-2.10;99.90;;;;;;5068671;28;20476;-52
2022/02/27 05:17:03;;;;;;;5.43;3.08;;;-2.10;99.90;;;;;;5068754;28;20036;-52
2022/02/27 05:19:28;;;;;;;4.38;2.90;;;-2.10;99.90;;;;;;5068604;28;20032;-49
2022/02/27 05:21:54;;;;;;;7.18;2.92;;;-2.10;99.90;;;;;;5068084;28;20040;-53
2022/02/27 05:24:19;;;;;;;5.13;3.13;;;-2.10;99.90;;;;;;5068445;28;20040;-52
2022/02/27 05:26:45;;;;;;;5.78;2.55;;;-2.10;99.90;;;;;;5069607;28;20078;-52
2022/02/27 05:29:11;;;;;;;4.28;2.75;;;-2.10;99.90;;;;;;5072195;28;20040;-56
2022/02/27 05:31:36;;;;;;;4.85;2.80;;;-2.10;99.90;;;;;;5072980;28;20469;-51
2022/02/27 05:34:02;;;;;;;3.55;2.60;;;-2.10;99.90;;;;;;5071804;28;20508;-52
2022/02/27 05:36:27;;;;;;;3.80;3.20;;;-2.10;99.90;;;;;;5054588;28;20032;-53
2022/02/27 05:38:53;;;;;;;6.47;2.97;;;-2.10;99.90;;;;;;5072614;28;20395;-53
2022/02/27 05:41:19;;;;;;;7.13;3.25;;;-2.10;99.90;;;;;;5072634;28;20553;-54
2022/02/27 05:43:44;;;;;;;6.00;2.97;;;-2.10;99.90;;;;;;5072108;28;20393;-52
2022/02/27 05:46:10;;;;;;;3.92;2.58;;;-2.20;99.90;;;;;;5072443;28;20075;-54
2022/02/27 05:48:35;;;;;;;4.57;3.03;;;-2.20;99.90;;;;;;5072760;28;20029;-54
2022/02/27 05:51:01;;;;;;;7.10;2.97;;;-2.10;99.90;;;;;;5072263;28;20069;-52
2022/02/27 05:53:26;;;;;;;4.35;2.53;;;-2.10;99.90;;;;;;5071556;28;20041;-54
2022/02/27 05:55:56;;;;;;;4.80;3.17;;;-2.10;99.90;;;;;;5071696;28;20033;-53
2022/02/27 05:58:23;;;;;;;5.47;2.47;;;-2.10;99.90;;;;;;5071698;28;20036;-52
2022/02/27 06:00:49;;;;;;;5.25;3.38;;;-2.10;99.90;;;;;;5073801;28;20020;-53
2022/02/27 06:03:16;;;;;;;3.67;2.55;;;-2.10;99.90;;;;;;5076018;28;20043;-53
2022/02/27 06:05:42;;;;;;;6.40;2.95;;;-2.00;99.90;;;;;;5071352;28;20377;-49
2022/02/27 06:08:08;;;;;;;4.85;2.80;;;-2.00;99.90;;;;;;5072000;28;20016;-50
2022/02/27 06:10:33;;;;;;;5.57;2.63;;;-2.00;99.90;;;;;;5071738;28;20031;-50
2022/02/27 06:12:59;;;;;;;4.95;3.40;;;-2.00;99.90;;;;;;5071568;28;20031;-53
2022/02/27 06:15:25;;;;;;;5.40;4.05;;;-2.00;99.90;;;;;;5071714;28;20409;-50
2022/02/27 06:17:50;;;;;;;5.45;3.03;;;-2.00;99.90;;;;;;5071761;28;20063;-51
2022/02/27 06:20:16;;;;;;;5.47;3.35;;;-2.00;99.90;;;;;;5071838;28;20051;-54
2022/02/27 06:22:43;;;;;;;4.93;3.03;;;-2.00;99.90;;;;;;5052979;28;20044;-52
2022/02/27 06:25:10;;;;;;;5.43;3.17;;;-2.00;99.90;;;;;;5058654;28;20569;-53
2022/02/27 06:27:54;;;;;;;4.70;2.88;;;-2.00;99.90;;;;;;5052365;28;20029;-53
2022/02/27 06:30:21;;;;;;;4.60;3.05;;;-2.00;99.90;;;;;;5071689;28;20079;-53
2022/02/27 06:32:49;;;;;;;5.32;3.28;;;-2.00;99.90;;;;;;5071603;28;20032;-51
2022/02/27 06:35:16;;;;;;;8.70;3.33;;;-2.10;99.90;;;;;;5071280;28;20029;-52
2022/02/27 06:37:42;;;;;;;5.53;3.20;;;-2.10;99.90;;;;;;5071007;28;20029;-55
2022/02/27 06:40:08;;;;;;;6.35;3.05;;;-2.10;99.90;;;;;;5070299;28;20772;-50
2022/02/27 06:42:35;;;;;;;6.05;3.38;;;-2.10;99.90;;;;;;5071034;28;20458;-54
2022/02/27 06:45:01;;;;;;;5.40;3.40;;;-2.10;99.90;;;;;;5059094;28;20013;-54
2022/02/27 06:47:26;;;;;;;4.40;3.03;;;-2.10;99.90;;;;;;5071066;28;20155;-52
2022/02/27 06:49:52;;;;;;;6.25;3.33;;;-2.10;99.90;;;;;;5070843;28;20025;-52
2022/02/27 06:52:18;;;;;;;10.30;3.55;;;-2.00;99.90;;;;;;5071296;28;20025;-50
2022/02/27 06:54:43;;;;;;;5.60;3.70;;;-2.00;99.90;;;;;;5070825;28;20865;-50
2022/02/27 06:57:09;;;;;;;6.30;3.55;;;-2.00;99.90;;;;;;5070866;28;20028;-51
2022/02/27 06:59:35;;;;;;;4.60;2.83;;;-2.00;99.90;;;;;;5070526;28;20038;-55
2022/02/27 07:02:00;;;;;;;4.00;2.95;;;-2.00;99.90;;;;;;5070072;28;20040;-56
2022/02/27 07:04:26;;;;;;;4.28;2.83;;;-1.90;99.90;;;;;;5070942;28;20050;-51
2022/02/27 07:06:52;;;;;;;6.07;3.47;;;-1.90;99.90;;;;;;5070924;28;20066;-51
2022/02/27 07:09:19;;;;;;;4.50;2.85;;;-1.90;99.90;;;;;;5052636;28;20430;-52
2022/02/27 07:11:45;;;;;;;6.68;3.35;;;-1.90;99.90;;;;;;5070794;28;20021;-53
2022/02/27 07:14:11;;;;;;;3.97;3.22;;;-1.90;99.90;;;;;;5070387;28;20024;-50
2022/02/27 07:16:37;;;;;;;6.05;2.95;;;-1.80;99.90;;;;;;5069801;28;20028;-53
2022/02/27 07:19:04;;;;;;;7.07;3.40;;;-1.80;99.90;;;;;;5070309;28;20036;-53
2022/02/27 07:21:30;;;;;;;7.50;3.20;;;-1.80;99.90;;;;;;5070374;28;20484;-51
2022/02/27 07:23:56;;;;;;;4.80;3.45;;;-1.70;99.90;;;;;;5070561;28;20083;-50
2022/02/27 07:26:22;;;;;;;7.10;3.92;;;-1.70;99.90;;;;;;5070316;28;20503;-54
2022/02/27 07:28:47;;;;;;;5.22;3.40;;;-1.60;99.90;;;;;;5069303;28;20028;-54
2022/02/27 07:31:13;;;;;;;5.88;3.90;;;-1.60;99.90;;;;;;5070650;28;20024;-51
2022/02/27 07:33:38;;;;;;;7.30;3.67;;;-1.50;99.90;;;;;;5069957;28;20512;-56
2022/02/27 07:36:04;;;;;;;7.07;3.90;;;-1.50;99.90;;;;;;5070627;28;20059;-54
2022/02/27 07:38:30;;;;;;;6.07;3.75;;;-1.40;99.90;;;;;;5069815;28;20039;-52
2022/02/27 07:40:55;;;;;;;8.30;3.45;;;-1.40;99.90;;;;;;5070147;28;20492;-53
2022/02/27 07:43:21;;;;;;;5.50;4.18;;;-1.30;99.90;;;;;;5069723;28;20036;-55
2022/02/27 07:45:47;;;;;;;6.75;4.03;;;-1.20;99.90;;;;;;5069749;28;20020;-55
2022/02/27 07:48:16;;;;;;;9.20;4.13;;;-1.20;99.90;;;;;;5060488;28;20065;-53
2022/02/27 07:50:42;;;;;;;6.75;3.78;;;-1.10;99.90;;;;;;5069015;28;20028;-56
2022/02/27 07:53:08;;;;;;;4.18;3.22;;;-1.10;99.90;;;;;;5069007;28;20032;-53
2022/02/27 07:55:33;;;;;;;13.05;4.97;;;-1.00;99.90;;;;;;5069492;28;20108;-54
2022/02/27 07:57:59;;;;;;;7.05;3.85;;;-0.90;99.90;;;;;;5069856;28;20032;-56
2022/02/27 08:00:25;;;;;;;7.45;3.95;;;-0.90;99.90;;;;;;5068633;28;20031;-54
2022/02/27 08:02:51;;;;;;;6.82;4.20;;;-0.80;99.90;;;;;;5062511;28;20059;-56
2022/02/27 08:05:17;;;;;;;9.30;4.25;;;-0.70;99.90;;;;;;5069436;28;20110;-50
2022/02/27 08:07:44;;;;;;;8.02;4.80;;;-0.60;99.90;;;;;;5069887;28;20044;-51
2022/02/27 08:10:12;;;;;;;8.38;4.78;;;-0.50;99.90;;;;;;5069824;28;20039;-54
2022/02/27 08:12:48;;;;;;;12.27;5.22;;;-0.40;99.90;;;;;;5069514;28;20041;-50
2022/02/27 08:15:15;;;;;;;10.18;4.40;;;-0.30;99.90;;;;;;5073316;28;20672;-52
2022/02/27 08:17:42;;;;;;;6.88;4.63;;;-0.30;99.90;;;;;;5051824;28;20040;-50
2022/02/27 08:20:07;;;;;;;9.23;5.05;;;-0.20;99.90;;;;;;5069414;28;20039;-52
2022/02/27 08:22:33;;;;;;;10.40;5.40;;;0.00;99.90;;;;;;5069538;28;20111;-54
2022/02/27 08:24:59;;;;;;;11.82;4.97;;;0.10;99.90;;;;;;5069731;28;20372;-53
2022/02/27 08:27:24;;;;;;;11.68;6.43;;;0.20;99.90;;;;;;5069911;28;20044;-51
2022/02/27 08:29:51;;;;;;;12.55;5.38;;;0.40;99.90;;;;;;5069469;28;20044;-52
2022/02/27 08:32:17;;;;;;;10.07;5.97;;;0.60;99.90;;;;;;5069420;28;20032;-52
2022/02/27 08:34:43;;;;;;;13.52;5.82;;;0.80;99.90;;;;;;5068505;28;20457;-56
2022/02/27 08:37:09;;;;;;;12.38;5.50;;;0.90;99.90;;;;;;5068692;28;20077;-54
2022/02/27 08:39:35;;;;;;;14.93;5.57;;;1.10;99.90;;;;;;5070283;28;20032;-54
2022/02/27 08:42:01;;;;;;;8.05;5.32;;;1.30;99.90;;;;;;5070452;28;20064;-51
2022/02/27 08:44:28;;;;;;;7.43;4.85;;;1.50;99.90;;;;;;5051268;28;20028;-50
2022/02/27 08:46:54;;;;;;;7.30;4.63;;;1.60;99.90;;;;;;5068897;28;20024;-53
2022/02/27 08:49:20;;;;;;;11.93;5.38;;;1.80;99.90;;;;;;5069289;28;20121;-52
2022/02/27 08:51:47;;;;;;;9.75;5.25;;;2.00;99.90;;;;;;5069504;28;20028;-53
2022/02/27 08:54:13;;;;;;;5.70;4.28;;;2.10;99.90;;;;;;5069175;28;20032;-55
2022/02/27 08:56:38;;;;;;;8.68;4.35;;;2.30;99.90;;;;;;5068837;28;20107;-54
2022/02/27 08:59:04;;;;;;;6.28;4.60;;;2.50;99.90;;;;;;5069281;28;20154;-53
2022/02/27 09:01:29;;;;;;;6.53;4.15;;;2.70;99.90;;;;;;5068514;28;20039;-53
2022/02/27 09:03:55;;;;;;;9.23;4.10;;;2.90;99.90;;;;;;5069297;28;20028;-52
2022/02/27 09:06:20;;;;;;;8.27;4.50;;;3.00;99.90;;;;;;5069122;28;20040;-55
2022/02/27 09:08:46;;;;;;;8.32;4.00;;;3.20;99.90;;;;;;5050695;28;20021;-55
2022/02/27 09:11:12;;;;;;;10.07;4.57;;;3.30;99.90;;;;;;5069120;28;20028;-54
2022/02/27 09:13:37;;;;;;;9.57;3.97;;;3.50;99.90;;;;;;5068497;28;20392;-54
2022/02/27 09:16:03;;;;;;;6.85;3.90;;;3.60;99.90;;;;;;5066996;28;20048;-55
2022/02/27 09:18:29;;;;;;;11.68;4.03;;;3.70;99.90;;;;;;5068530;28;20037;-55
2022/02/27 09:20:54;;;;;;;5.05;4.07;;;3.80;99.90;;;;;;5068463;28;20036;-53
2022/02/27 09:23:20;;;;;;;5.00;3.33;;;3.90;99.90;;;;;;5068217;28;20106;-56
2022/02/27 09:25:45;;;;;;;6.70;4.10;;;4.00;99.90;;;;;;5068433;28;20039;-53
2022/02/27 09:28:11;;;;;;;8.93;4.57;;;4.10;99.90;;;;;;5069096;28;20630;-55
2022/02/27 09:30:36;;;;;;;7.68;3.83;;;4.20;99.90;;;;;;5050891;28;20029;-54
2022/02/27 09:33:02;;;;;;;6.43;3.85;;;4.30;99.90;;;;;;5067920;28;20040;-54
2022/02/27 09:35:28;;;;;;;5.35;3.30;;;4.50;99.90;;;;;;5068581;28;20074;-52
2022/02/27 09:37:56;;;;;;;8.00;3.83;;;4.50;99.90;;;;;;5068380;28;20029;-57
2022/02/27 09:40:21;;;;;;;8.48;3.83;;;4.60;99.90;;;;;;5069087;28;20032;-53
2022/02/27 09:42:47;;;;;;;8.95;3.88;;;4.70;99.90;;;;;;5068525;28;20618;-54
2022/02/27 09:45:14;;;;;;;11.15;4.43;;;4.80;99.90;;;;;;5068909;28;20029;-52
2022/02/27 09:47:40;;;;;;;5.47;3.50;;;4.90;99.90;;;;;;5068308;28;20024;-57
2022/02/27 09:50:06;;;;;;;6.03;3.80;;;5.00;99.90;;;;;;5068585;28;20075;-57
2022/02/27 09:52:32;;;;;;;5.47;3.50;;;5.00;99.90;;;;;;5067866;28;20101;-57
2022/02/27 09:54:57;;;;;;;5.32;3.55;;;5.00;99.90;;;;;;5068806;28;20104;-54
2022/02/27 09:57:24;;;;;;;5.45;3.20;;;5.20;99.90;;;;;;5068598;28;20514;-53
2022/02/27 09:59:50;;;;;;;7.45;3.75;;;5.30;99.90;;;;;;5068276;28;20055;-54
2022/02/27 10:02:16;;;;;;;6.65;3.20;;;5.40;99.90;;;;;;5068509;28;20912;-55
2022/02/27 10:04:43;;;;;;;6.32;3.40;;;5.50;99.90;;;;;;5068280;28;20021;-56
2022/02/27 10:07:14;;;;;;;5.38;3.13;;;5.60;99.90;;;;;;5068620;28;20029;-54
2022/02/27 10:09:40;;;;;;;6.95;3.20;;;5.60;99.90;;;;;;5068600;28;20012;-53
2022/02/27 10:12:15;;;;;;;5.80;3.70;;;5.70;99.90;;;;;;5068966;28;20020;-57
2022/02/27 10:14:41;;;;;;;5.40;3.20;;;5.70;99.90;;;;;;5071444;28;20128;-55
2022/02/27 10:17:07;;;;;;;8.60;3.78;;;5.80;99.90;;;;;;5053715;28;20117;-56
2022/02/27 10:19:40;;;;;;;6.25;3.20;;;5.80;99.90;;;;;;5071903;28;20052;-54
2022/02/27 10:22:07;;;;;;;5.40;3.38;;;5.80;99.90;;;;;;5071673;28;20495;-55
2022/02/27 10:24:35;;;;;;;6.15;2.53;;;5.90;99.90;;;;;;5072071;28;20036;-56
2022/02/27 10:27:10;;;;;;;8.45;2.90;;;5.90;99.90;;;;;;5071765;28;20369;-54
2022/02/27 10:29:36;;;;;;;6.72;3.60;;;5.90;99.90;;;;;;5071456;28;20111;-55
2022/02/27 10:32:03;;;;;;;3.47;3.03;;;5.90;99.90;;;;;;5071217;28;20101;-56
2022/02/27 10:34:33;;;;;;;5.45;2.70;;;6.00;99.90;;;;;;5071641;28;20502;-55
2022/02/27 10:37:05;;;;;;;4.72;3.30;;;6.00;99.90;;;;;;5053266;28;20031;-55
2022/02/27 10:39:42;;;;;;;3.10;2.63;;;6.10;99.90;;;;;;5051824;28;20615;-54
2022/02/27 10:42:21;;;;;;;6.57;3.10;;;6.20;99.90;;;;;;5070328;28;20024;-55
2022/02/27 10:44:57;;;;;;;6.43;3.08;;;6.20;99.90;;;;;;5071700;28;20020;-55
2022/02/27 10:47:24;;;;;;;5.72;2.97;;;6.30;99.90;;;;;;5051867;28;20029;-52
2022/02/27 10:49:52;;;;;;;6.03;2.58;;;6.30;99.90;;;;;;5051563;28;20028;-55
2022/02/27 10:52:23;;;;;;;7.10;2.95;;;6.40;99.90;;;;;;5070038;28;20281;-56
2022/02/27 10:55:00;;;;;;;4.95;2.92;;;6.40;99.90;;;;;;5070871;28;20027;-56
2022/02/27 10:57:45;;;;;;;7.28;3.40;;;6.40;99.90;;;;;;5072269;28;20467;-56
2022/02/27 11:00:29;;;;;;;6.20;3.38;;;6.50;99.90;;;;;;5070957;28;20060;-53
2022/02/27 11:02:59;;;;;;;5.32;3.30;;;6.50;99.90;;;;;;5070959;28;20036;-55
2022/02/27 11:05:27;;;;;;;8.35;3.50;;;6.50;99.90;;;;;;5070950;28;20074;-54
2022/02/27 11:07:55;;;;;;;7.60;3.15;;;6.50;99.90;;;;;;5071333;28;20013;-53
2022/02/27 11:10:27;;;;;;;5.07;2.83;;;6.60;99.90;;;;;;5071083;28;20032;-52
2022/02/27 11:12:54;;;;;;;7.28;2.97;;;6.70;99.90;;;;;;5070888;28;20094;-56
2022/02/27 11:15:21;;;;;;;4.50;2.40;;;6.70;99.90;;;;;;5070649;28;20029;-53
2022/02/27 11:17:48;;;;;;;7.10;2.85;;;6.80;99.90;;;;;;5070830;28;20032;-54
2022/02/27 11:20:15;;;;;;;7.43;3.05;;;6.70;99.90;;;;;;5070703;28;20028;-54
2022/02/27 11:22:40;;;;;;;6.70;2.90;;;6.70;99.90;;;;;;5070041;28;20085;-55
2022/02/27 11:25:08;;;;;;;5.75;2.70;;;6.60;99.90;;;;;;5070615;28;20028;-56
2022/02/27 11:27:41;;;;;;;7.35;3.13;;;6.60;99.90;;;;;;5071183;28;20040;-57
2022/02/27 11:30:08;;;;;;;4.50;2.63;;;6.60;99.90;;;;;;5070987;28;20035;-55
2022/02/27 11:32:45;;;;;;;4.47;2.38;;;6.60;99.90;;;;;;5070546;28;20036;-53
2022/02/27 11:35:10;;;;;;;;;;;6.60;99.90;;;;;;5071443;28;20036;-53
2022/02/27 11:37:50;;;;;;;4.50;2.50;;;6.60;99.90;;;;;;5070811;28;19908;-53
2022/02/27 11:40:30;;;;;;;5.07;2.25;;;6.70;99.90;;;;;;5070821;28;20105;-54
2022/02/27 11:43:00;;;;;;;3.35;2.17;;;6.70;99.90;;;;;;5070344;28;20028;-52
2022/02/27 11:45:32;;;;;;;2.17;1.75;;;6.70;99.90;;;;;;5069923;28;20016;-55
2022/02/27 11:47:58;;;;;;;5.03;1.95;;;6.70;99.90;;;;;;5070360;28;20056;-54
2022/02/27 11:50:26;;;;;;;2.80;2.03;;;6.70;99.90;;;;;;5070156;28;20527;-55
2022/02/27 11:52:52;;;;;;;6.93;1.90;;;6.70;99.90;;;;;;5070308;28;20025;-53
2022/02/27 11:55:41;;;;;;;4.32;2.58;;;6.70;99.90;;;;;;5070144;28;20036;-55
2022/02/27 11:58:26;;;;;;;4.97;2.78;;;6.60;99.90;;;;;;5070854;28;20048;-55
2022/02/27 12:00:52;;;;;;;6.00;2.17;;;6.70;99.90;;;;;;5045515;28;20044;-56
2022/02/27 12:03:30;;;;;;;3.58;2.05;;;6.70;99.90;;;;;;5069825;28;20082;-56
2022/02/27 12:06:00;;;;;;;5.60;2.50;;;6.80;99.90;;;;;;5069775;28;20519;-55
2022/02/27 12:08:51;;;;;;;4.13;2.28;;;6.80;99.90;;;;;;5070318;28;20025;-56
2022/02/27 12:11:26;;;;;;;4.13;2.17;;;6.80;99.90;;;;;;5069557;28;20435;-57
2022/02/27 12:13:53;;;;;;;4.80;2.20;;;6.80;99.90;;;;;;5069772;28;20453;-57
2022/02/27 12:16:18;;;;;;;5.25;2.17;;;6.80;99.90;;;;;;5069701;28;20034;-55
2022/02/27 12:18:53;;;;;;;3.03;1.55;;;6.70;99.90;;;;;;5070223;28;20028;-54
2022/02/27 12:21:27;;;;;;;3.22;1.70;;;6.80;99.90;;;;;;5069678;28;20024;-55
2022/02/27 12:23:52;;;;;;;2.75;1.70;;;6.80;99.90;;;;;;5069800;28;20032;-54
2022/02/27 12:26:36;;;;;;;2.22;1.70;;;6.80;99.90;;;;;;5069600;28;20036;-51
2022/02/27 12:29:06;;;;;;;4.28;2.00;;;6.90;99.90;;;;;;5069517;28;20052;-54
2022/02/27 12:31:34;;;;;;;6.50;1.75;;;6.90;99.90;;;;;;5069889;28;20546;-54
2022/02/27 12:34:18;;;;;;;4.82;2.20;;;6.80;99.90;;;;;;5069323;28;20075;-54
2022/02/27 12:36:48;;;;;;;6.30;2.47;;;6.80;99.90;;;;;;5068021;28;20444;-53
2022/02/27 12:39:15;;;;;;;4.07;2.50;;;6.80;99.90;;;;;;5069673;28;20028;-56
2022/02/27 12:41:48;;;;;;;5.45;2.05;;;6.80;99.90;;;;;;5069982;28;20504;-56
2022/02/27 12:44:23;;;;;;;2.63;1.75;;;6.90;99.90;;;;;;5068431;28;20029;-57
2022/02/27 12:46:48;;;;;;;4.78;2.22;;;6.90;99.90;;;;;;5069524;28;20020;-54
2022/02/27 12:52:00;;;;;;;4.97;1.75;;;6.90;99.90;;;;;;5069253;28;20036;-53